createdAt,value
2022-11-23T00:00:34.195Z,999.16
2022-11-23T00:01:34.130Z,999.19
2022-11-23T00:02:34.087Z,999.22
2022-11-23T00:03:33.977Z,999.21
2022-11-23T00:04:33.930Z,999.21
2022-11-23T00:05:33.965Z,999.17
2022-11-23T00:06:33.784Z,999.11
2022-11-23T00:07:33.756Z,999.08
2022-11-23T00:08:33.630Z,999.06
2022-11-23T00:09:33.892Z,999.02
2022-11-23T00:10:33.548Z,999.04
2022-11-23T00:11:33.432Z,999.04
2022-11-23T00:12:33.341Z,999.00
2022-11-23T00:13:33.268Z,999.02
2022-11-23T00:14:33.202Z,999.03
2022-11-23T00:15:33.131Z,999.01
2022-11-23T00:16:33.135Z,999.02
2022-11-23T00:17:33.097Z,998.99
2022-11-23T00:18:32.926Z,999.03
2022-11-23T00:19:33.186Z,999.04
2022-11-23T00:20:32.789Z,999.04
2022-11-23T00:21:32.761Z,999.03
2022-11-23T00:22:32.667Z,999.01
2022-11-23T00:23:32.591Z,999.03
2022-11-23T00:24:32.538Z,999.01
2022-11-23T00:25:32.418Z,999.03
2022-11-23T00:26:32.353Z,999.03
2022-11-23T00:27:32.281Z,999.06
2022-11-23T00:28:32.215Z,999.05
2022-11-23T00:29:32.384Z,999.09
2022-11-23T00:30:32.133Z,999.13
2022-11-23T00:31:32.024Z,999.08
2022-11-23T00:32:31.929Z,999.03
2022-11-23T00:33:31.851Z,999.02
2022-11-23T00:34:31.785Z,999.00
2022-11-23T00:35:31.722Z,999.00
2022-11-23T00:36:31.646Z,999.01
2022-11-23T00:37:31.575Z,998.99
2022-11-23T00:38:31.611Z,999.05
2022-11-23T00:39:31.708Z,999.05
2022-11-23T00:40:31.428Z,999.07
2022-11-23T00:41:31.301Z,999.10
2022-11-23T00:42:36.555Z,999.11
2022-11-23T00:43:31.166Z,999.11
2022-11-23T00:44:31.089Z,999.16
2022-11-23T00:45:31.041Z,999.13
2022-11-23T00:46:30.988Z,999.15
2022-11-23T00:47:30.890Z,999.15
2022-11-23T00:48:30.805Z,999.18
2022-11-23T00:49:31.031Z,999.20
2022-11-23T00:50:30.650Z,999.24
2022-11-23T00:51:30.591Z,999.22
2022-11-23T00:52:30.511Z,999.24
2022-11-23T00:53:30.441Z,999.24
2022-11-23T00:54:30.365Z,999.24
2022-11-23T00:55:30.296Z,999.25
2022-11-23T00:56:30.233Z,999.28
2022-11-23T00:57:30.155Z,999.28
2022-11-23T00:58:30.093Z,999.27
2022-11-23T00:59:30.512Z,999.25
2022-11-23T01:00:29.961Z,999.26
2022-11-23T01:01:29.920Z,999.21
2022-11-23T01:02:29.839Z,999.27
2022-11-23T01:03:29.779Z,999.29
2022-11-23T01:04:29.672Z,999.33
2022-11-23T01:05:29.609Z,999.40
2022-11-23T01:06:29.517Z,999.38
2022-11-23T01:07:29.555Z,999.36
2022-11-23T01:08:29.428Z,999.33
2022-11-23T01:09:29.779Z,999.34
2022-11-23T01:10:29.240Z,999.30
2022-11-23T01:11:29.251Z,999.33
2022-11-23T01:12:29.120Z,999.28
2022-11-23T01:13:29.050Z,999.27
2022-11-23T01:14:29.281Z,999.25
2022-11-23T01:15:28.891Z,999.26
2022-11-23T01:16:28.872Z,999.24
2022-11-23T01:17:28.744Z,999.21
2022-11-23T01:18:28.735Z,999.22
2022-11-23T01:19:28.764Z,999.23
2022-11-23T01:20:28.590Z,999.27
2022-11-23T01:21:28.488Z,999.20
2022-11-23T01:22:28.396Z,999.25
2022-11-23T01:23:28.317Z,999.22
2022-11-23T01:24:28.263Z,999.20
2022-11-23T01:25:28.178Z,999.23
2022-11-23T01:26:28.148Z,999.26
2022-11-23T01:27:28.048Z,999.27
2022-11-23T01:28:27.997Z,999.28
2022-11-23T01:29:27.905Z,999.25
2022-11-23T01:30:27.974Z,999.30
2022-11-23T01:31:27.750Z,999.21
2022-11-23T01:32:27.754Z,999.22
2022-11-23T01:33:27.638Z,999.25
2022-11-23T01:34:27.545Z,999.24
2022-11-23T01:35:27.473Z,999.24
2022-11-23T01:36:27.452Z,999.28
2022-11-23T01:37:27.365Z,999.31
2022-11-23T01:38:27.270Z,999.28
2022-11-23T01:39:27.187Z,999.27
2022-11-23T01:40:27.255Z,999.29
2022-11-23T01:41:27.057Z,999.28
2022-11-23T01:42:27.000Z,999.30
2022-11-23T01:43:26.926Z,999.36
2022-11-23T01:44:26.848Z,999.35
2022-11-23T01:45:26.766Z,999.35
2022-11-23T01:46:26.730Z,999.36
2022-11-23T01:47:26.624Z,999.38
2022-11-23T01:48:26.577Z,999.33
2022-11-23T01:49:26.471Z,999.40
2022-11-23T01:50:26.481Z,999.39
2022-11-23T01:51:26.449Z,999.39
2022-11-23T01:52:26.273Z,999.41
2022-11-23T01:53:26.189Z,999.41
2022-11-23T01:54:26.123Z,999.33
2022-11-23T01:55:26.067Z,999.42
2022-11-23T01:56:26.022Z,999.42
2022-11-23T01:57:25.925Z,999.42
2022-11-23T01:58:25.848Z,999.44
2022-11-23T01:59:25.782Z,999.43
2022-11-23T02:00:25.702Z,999.47
2022-11-23T02:01:25.707Z,999.50
2022-11-23T02:02:25.577Z,999.46
2022-11-23T02:03:25.507Z,999.43
2022-11-23T02:04:25.419Z,999.47
2022-11-23T02:05:25.350Z,999.47
2022-11-23T02:06:25.298Z,999.45
2022-11-23T02:07:25.272Z,999.45
2022-11-23T02:08:25.149Z,999.43
2022-11-23T02:09:25.060Z,999.45
2022-11-23T02:10:25.004Z,999.38
2022-11-23T02:11:24.976Z,999.39
2022-11-23T02:12:24.859Z,999.43
2022-11-23T02:13:24.818Z,999.44
2022-11-23T02:14:24.746Z,999.38
2022-11-23T02:15:24.654Z,999.39
2022-11-23T02:16:24.592Z,999.38
2022-11-23T02:17:24.546Z,999.36
2022-11-23T02:18:24.446Z,999.36
2022-11-23T02:19:24.383Z,999.30
2022-11-23T02:20:24.322Z,999.33
2022-11-23T02:21:24.253Z,999.35
2022-11-23T02:22:24.185Z,999.33
2022-11-23T02:23:24.102Z,999.30
2022-11-23T02:24:24.031Z,999.32
2022-11-23T02:25:23.942Z,999.31
2022-11-23T02:26:23.919Z,999.27
2022-11-23T02:27:23.880Z,999.28
2022-11-23T02:28:23.756Z,999.26
2022-11-23T02:29:23.746Z,999.29
2022-11-23T02:30:23.642Z,999.29
2022-11-23T02:31:23.552Z,999.29
2022-11-23T02:32:23.443Z,999.24
2022-11-23T02:33:23.606Z,999.23
2022-11-23T02:34:23.378Z,999.18
2022-11-23T02:35:23.281Z,999.20
2022-11-23T02:36:23.175Z,999.22
2022-11-23T02:37:23.098Z,999.22
2022-11-23T02:38:23.030Z,999.20
2022-11-23T02:39:22.962Z,999.20
2022-11-23T02:40:22.932Z,999.22
2022-11-23T02:41:22.818Z,999.20
2022-11-23T02:42:22.784Z,999.20
2022-11-23T02:43:22.683Z,999.21
2022-11-23T02:44:22.615Z,999.22
2022-11-23T02:45:22.548Z,999.21
2022-11-23T02:46:22.566Z,999.20
2022-11-23T02:47:22.458Z,999.22
2022-11-23T02:48:22.337Z,999.18
2022-11-23T02:49:22.273Z,999.20
2022-11-23T02:50:22.194Z,999.21
2022-11-23T02:51:22.126Z,999.23
2022-11-23T02:52:22.041Z,999.23
2022-11-23T02:53:21.979Z,999.29
2022-11-23T02:54:21.922Z,999.31
2022-11-23T02:55:21.836Z,999.31
2022-11-23T02:56:21.775Z,999.32
2022-11-23T02:57:21.810Z,999.36
2022-11-23T02:58:21.710Z,999.35
2022-11-23T02:59:21.550Z,999.32
2022-11-23T03:00:21.559Z,999.36
2022-11-23T03:01:21.471Z,999.39
2022-11-23T03:02:21.344Z,999.39
2022-11-23T03:03:21.288Z,999.46
2022-11-23T03:04:27.405Z,999.47
2022-11-23T03:05:21.131Z,999.44
2022-11-23T03:06:21.114Z,999.46
2022-11-23T03:07:21.074Z,999.47
2022-11-23T03:08:20.937Z,999.44
2022-11-23T03:09:20.836Z,999.39
2022-11-23T03:10:20.780Z,999.37
2022-11-23T03:11:20.701Z,999.37
2022-11-23T03:12:20.625Z,999.39
2022-11-23T03:13:20.559Z,999.40
2022-11-23T03:14:20.493Z,999.35
2022-11-23T03:15:20.459Z,999.42
2022-11-23T03:16:20.353Z,999.42
2022-11-23T03:17:20.289Z,999.42
2022-11-23T03:18:20.218Z,999.36
2022-11-23T03:19:20.130Z,999.39
2022-11-23T03:20:20.075Z,999.43
2022-11-23T03:21:19.997Z,999.49
2022-11-23T03:22:19.924Z,999.49
2022-11-23T03:23:19.849Z,999.48
2022-11-23T03:24:19.801Z,999.43
2022-11-23T03:25:19.734Z,999.42
2022-11-23T03:26:19.646Z,999.42
2022-11-23T03:27:19.585Z,999.48
2022-11-23T03:28:19.554Z,999.40
2022-11-23T03:29:19.436Z,999.39
2022-11-23T03:30:19.499Z,999.43
2022-11-23T03:31:19.306Z,999.41
2022-11-23T03:32:19.233Z,999.41
2022-11-23T03:33:19.154Z,999.42
2022-11-23T03:34:19.086Z,999.39
2022-11-23T03:35:19.062Z,999.43
2022-11-23T03:36:18.944Z,999.44
2022-11-23T03:37:18.872Z,999.42
2022-11-23T03:38:18.803Z,999.46
2022-11-23T03:39:18.721Z,999.41
2022-11-23T03:40:18.651Z,999.46
2022-11-23T03:41:18.600Z,999.46
2022-11-23T03:42:18.524Z,999.48
2022-11-23T03:43:18.479Z,999.48
2022-11-23T03:44:18.372Z,999.49
2022-11-23T03:45:18.338Z,999.49
2022-11-23T03:46:18.244Z,999.48
2022-11-23T03:47:18.157Z,999.46
2022-11-23T03:48:18.084Z,999.48
2022-11-23T03:49:18.035Z,999.47
2022-11-23T03:50:17.950Z,999.45
2022-11-23T03:51:17.907Z,999.41
2022-11-23T03:52:17.815Z,999.41
2022-11-23T03:53:17.796Z,999.41
2022-11-23T03:54:17.664Z,999.43
2022-11-23T03:55:17.594Z,999.40
2022-11-23T03:56:17.531Z,999.44
2022-11-23T03:57:17.466Z,999.43
2022-11-23T03:58:17.380Z,999.42
2022-11-23T03:59:17.308Z,999.42
2022-11-23T04:00:17.234Z,999.40
2022-11-23T04:01:17.176Z,999.46
2022-11-23T04:02:17.125Z,999.46
2022-11-23T04:03:17.069Z,999.48
2022-11-23T04:04:16.958Z,999.49
2022-11-23T04:05:16.881Z,999.45
2022-11-23T04:06:16.826Z,999.46
2022-11-23T04:07:16.835Z,999.42
2022-11-23T04:08:16.669Z,999.47
2022-11-23T04:09:16.595Z,999.45
2022-11-23T04:10:16.561Z,999.49
2022-11-23T04:11:16.471Z,999.46
2022-11-23T04:12:16.383Z,999.42
2022-11-23T04:13:16.319Z,999.51
2022-11-23T04:14:16.242Z,999.48
2022-11-23T04:15:16.216Z,999.46
2022-11-23T04:16:16.123Z,999.45
2022-11-23T04:17:16.102Z,999.45
2022-11-23T04:18:15.982Z,999.43
2022-11-23T04:19:15.941Z,999.43
2022-11-23T04:20:15.834Z,999.45
2022-11-23T04:21:15.782Z,999.46
2022-11-23T04:22:15.678Z,999.40
2022-11-23T04:23:15.617Z,999.43
2022-11-23T04:24:15.576Z,999.38
2022-11-23T04:25:15.499Z,999.41
2022-11-23T04:26:15.398Z,999.42
2022-11-23T04:27:15.408Z,999.38
2022-11-23T04:28:15.280Z,999.46
2022-11-23T04:29:15.189Z,999.45
2022-11-23T04:30:15.170Z,999.46
2022-11-23T04:31:15.091Z,999.46
2022-11-23T04:32:14.984Z,999.48
2022-11-23T04:33:14.921Z,999.45
2022-11-23T04:34:14.827Z,999.43
2022-11-23T04:35:14.840Z,999.49
2022-11-23T04:36:14.691Z,999.49
2022-11-23T04:37:14.630Z,999.51
2022-11-23T04:38:14.543Z,999.49
2022-11-23T04:39:14.488Z,999.54
2022-11-23T04:40:14.430Z,999.52
2022-11-23T04:41:14.338Z,999.53
2022-11-23T04:42:14.265Z,999.50
2022-11-23T04:43:14.213Z,999.54
2022-11-23T04:44:14.176Z,999.51
2022-11-23T04:45:14.055Z,999.56
2022-11-23T04:46:13.981Z,999.53
2022-11-23T04:47:13.931Z,999.56
2022-11-23T04:48:13.829Z,999.59
2022-11-23T04:49:13.799Z,999.56
2022-11-23T04:50:13.736Z,999.54
2022-11-23T04:51:13.632Z,999.52
2022-11-23T04:52:13.556Z,999.50
2022-11-23T04:53:13.481Z,999.48
2022-11-23T04:54:13.413Z,999.45
2022-11-23T04:55:13.384Z,999.46
2022-11-23T04:56:13.310Z,999.50
2022-11-23T04:57:13.205Z,999.49
2022-11-23T04:58:13.136Z,999.51
2022-11-23T04:59:13.051Z,999.51
2022-11-23T05:00:13.009Z,999.53
2022-11-23T05:01:13.002Z,999.53
2022-11-23T05:02:12.848Z,999.54
2022-11-23T05:03:12.780Z,999.56
2022-11-23T05:04:17.561Z,999.57
2022-11-23T05:05:12.635Z,999.58
2022-11-23T05:06:12.644Z,999.56
2022-11-23T05:07:12.532Z,999.57
2022-11-23T05:08:12.486Z,999.59
2022-11-23T05:09:12.365Z,999.51
2022-11-23T05:10:12.270Z,999.56
2022-11-23T05:11:12.213Z,999.53
2022-11-23T05:12:12.230Z,999.54
2022-11-23T05:13:12.106Z,999.51
2022-11-23T05:14:11.989Z,999.51
2022-11-23T05:15:11.952Z,999.52
2022-11-23T05:16:11.850Z,999.53
2022-11-23T05:17:11.778Z,999.48
2022-11-23T05:18:11.768Z,999.51
2022-11-23T05:19:11.638Z,999.52
2022-11-23T05:20:11.560Z,999.51
2022-11-23T05:21:11.504Z,999.49
2022-11-23T05:22:11.445Z,999.52
2022-11-23T05:23:11.488Z,999.57
2022-11-23T05:24:11.287Z,999.52
2022-11-23T05:25:11.232Z,999.53
2022-11-23T05:26:11.139Z,999.51
2022-11-23T05:27:11.088Z,999.45
2022-11-23T05:28:37.966Z,999.51
2022-11-23T05:29:10.931Z,999.46
2022-11-23T05:30:10.860Z,999.52
2022-11-23T05:31:10.790Z,999.51
2022-11-23T05:32:10.716Z,999.49
2022-11-23T05:33:10.681Z,999.52
2022-11-23T05:34:10.587Z,999.47
2022-11-23T05:35:10.503Z,999.49
2022-11-23T05:36:10.446Z,999.49
2022-11-23T05:37:10.384Z,999.48
2022-11-23T05:38:10.307Z,999.45
2022-11-23T05:39:10.274Z,999.48
2022-11-23T05:40:10.147Z,999.46
2022-11-23T05:41:10.105Z,999.45
2022-11-23T05:42:10.035Z,999.53
2022-11-23T05:43:09.951Z,999.49
2022-11-23T05:44:09.888Z,999.47
2022-11-23T05:45:11.650Z,999.51
2022-11-23T05:46:09.818Z,999.49
2022-11-23T05:47:09.656Z,999.50
2022-11-23T05:48:09.591Z,999.51
2022-11-23T05:49:09.602Z,999.53
2022-11-23T05:50:09.479Z,999.53
2022-11-23T05:51:09.387Z,999.51
2022-11-23T05:52:09.335Z,999.51
2022-11-23T05:53:09.299Z,999.54
2022-11-23T05:54:09.170Z,999.57
2022-11-23T05:55:09.100Z,999.55
2022-11-23T05:56:09.036Z,999.56
2022-11-23T05:57:08.956Z,999.54
2022-11-23T05:58:08.897Z,999.53
2022-11-23T05:59:08.937Z,999.48
2022-11-23T06:00:08.748Z,999.46
2022-11-23T06:01:08.682Z,999.45
2022-11-23T06:02:08.604Z,999.45
2022-11-23T06:03:08.570Z,999.49
2022-11-23T06:04:08.488Z,999.46
2022-11-23T06:05:08.392Z,999.45
2022-11-23T06:06:08.379Z,999.44
2022-11-23T06:07:08.328Z,999.44
2022-11-23T06:08:08.187Z,999.42
2022-11-23T06:09:08.194Z,999.41
2022-11-23T06:10:08.087Z,999.42
2022-11-23T06:11:08.013Z,999.38
2022-11-23T06:12:07.892Z,999.36
2022-11-23T06:13:07.835Z,999.42
2022-11-23T06:14:11.385Z,999.43
2022-11-23T06:15:07.674Z,999.46
2022-11-23T06:16:07.656Z,999.43
2022-11-23T06:17:07.546Z,999.46
2022-11-23T06:18:07.517Z,999.45
2022-11-23T06:19:07.452Z,999.51
2022-11-23T06:20:07.317Z,999.60
2022-11-23T06:21:07.273Z,999.57
2022-11-23T06:22:07.188Z,999.49
2022-11-23T06:23:07.151Z,999.52
2022-11-23T06:24:07.035Z,999.62
2022-11-23T06:25:06.966Z,999.62
2022-11-23T06:26:06.912Z,999.67
2022-11-23T06:27:06.827Z,999.65
2022-11-23T06:28:06.761Z,999.67
2022-11-23T06:29:06.690Z,999.72
2022-11-23T06:30:06.619Z,999.68
2022-11-23T06:31:06.557Z,999.71
2022-11-23T06:32:06.523Z,999.75
2022-11-23T06:33:06.398Z,999.74
2022-11-23T06:34:06.324Z,999.77
2022-11-23T06:35:06.282Z,999.72
2022-11-23T06:36:06.201Z,999.76
2022-11-23T06:37:06.137Z,999.75
2022-11-23T06:38:06.050Z,999.72
2022-11-23T06:39:05.978Z,999.74
2022-11-23T06:40:05.905Z,999.73
2022-11-23T06:41:05.832Z,999.77
2022-11-23T06:42:36.654Z,999.78
2022-11-23T06:43:05.697Z,999.77
2022-11-23T06:44:05.654Z,999.79
2022-11-23T06:45:05.594Z,999.78
2022-11-23T06:46:05.515Z,999.76
2022-11-23T06:47:05.447Z,999.79
2022-11-23T06:48:05.339Z,999.78
2022-11-23T06:49:05.274Z,999.81
2022-11-23T06:50:05.209Z,999.82
2022-11-23T06:51:05.157Z,999.80
2022-11-23T06:52:05.054Z,999.83
2022-11-23T06:53:05.043Z,999.80
2022-11-23T06:54:04.912Z,999.79
2022-11-23T06:55:04.872Z,999.79
2022-11-23T06:56:04.787Z,999.81
2022-11-23T06:57:04.712Z,999.79
2022-11-23T06:58:04.669Z,999.84
2022-11-23T06:59:04.576Z,999.86
2022-11-23T07:00:04.531Z,999.89
2022-11-23T07:01:04.527Z,999.88
2022-11-23T07:02:04.344Z,999.88
2022-11-23T07:03:04.275Z,999.88
2022-11-23T07:04:04.208Z,999.86
2022-11-23T07:05:04.208Z,999.86
2022-11-23T07:06:04.063Z,999.88
2022-11-23T07:07:04.225Z,999.86
2022-11-23T07:08:03.933Z,999.85
2022-11-23T07:09:03.851Z,999.84
2022-11-23T07:10:07.050Z,999.81
2022-11-23T07:11:03.776Z,999.84
2022-11-23T07:12:03.642Z,999.85
2022-11-23T07:13:03.597Z,999.83
2022-11-23T07:14:03.493Z,999.85
2022-11-23T07:15:03.483Z,999.84
2022-11-23T07:16:03.353Z,999.89
2022-11-23T07:17:03.291Z,999.84
2022-11-23T07:18:03.212Z,999.92
2022-11-23T07:19:03.141Z,999.94
2022-11-23T07:20:03.068Z,999.95
2022-11-23T07:21:03.012Z,999.98
2022-11-23T07:22:02.982Z,999.98
2022-11-23T07:23:02.904Z,1000.02
2022-11-23T07:24:02.791Z,1000.04
2022-11-23T07:25:02.746Z,1000.03
2022-11-23T07:26:02.646Z,1000.05
2022-11-23T07:27:02.611Z,1000.07
2022-11-23T07:28:02.525Z,1000.02
2022-11-23T07:29:02.582Z,1000.05
2022-11-23T07:30:02.402Z,1000.04
2022-11-23T07:31:02.294Z,1000.05
2022-11-23T07:32:02.236Z,1000.09
2022-11-23T07:33:02.238Z,1000.10
2022-11-23T07:34:02.088Z,1000.12
2022-11-23T07:35:02.052Z,1000.13
2022-11-23T07:36:01.979Z,1000.13
2022-11-23T07:37:02.394Z,1000.11
2022-11-23T07:38:01.810Z,1000.14
2022-11-23T07:39:01.743Z,1000.18
2022-11-23T07:40:02.065Z,1000.22
2022-11-23T07:41:01.592Z,1000.25
2022-11-23T07:43:01.452Z,1000.32
2022-11-23T07:44:01.402Z,1000.27
2022-11-23T07:45:01.311Z,1000.27
2022-11-23T07:46:01.232Z,1000.29
2022-11-23T07:47:01.189Z,1000.29
2022-11-23T07:48:01.196Z,1000.26
2022-11-23T07:49:01.026Z,1000.29
2022-11-23T07:50:01.018Z,1000.25
2022-11-23T07:51:00.914Z,1000.28
2022-11-23T07:52:00.813Z,1000.24
2022-11-23T07:53:00.748Z,1000.25
2022-11-23T07:54:00.684Z,1000.30
2022-11-23T07:55:00.635Z,1000.34
2022-11-23T07:56:00.548Z,1000.42
2022-11-23T07:57:00.480Z,1000.43
2022-11-23T07:58:00.416Z,1000.49
2022-11-23T07:59:00.338Z,1000.48
2022-11-23T08:00:00.295Z,1000.49
2022-11-23T08:01:00.197Z,1000.49
2022-11-23T08:02:00.189Z,1000.45
2022-11-23T08:04:00.006Z,1000.52
2022-11-23T08:04:59.973Z,1000.52
2022-11-23T08:05:59.875Z,1000.50
2022-11-23T08:06:59.809Z,1000.54
2022-11-23T08:07:59.737Z,1000.50
2022-11-23T08:08:59.695Z,1000.54
2022-11-23T08:09:59.651Z,1000.52
2022-11-23T08:10:59.578Z,1000.52
2022-11-23T08:11:59.515Z,1000.50
2022-11-23T08:12:59.426Z,1000.50
2022-11-23T08:13:59.383Z,1000.51
2022-11-23T08:14:59.267Z,1000.50
2022-11-23T08:15:59.221Z,1000.49
2022-11-23T08:16:59.156Z,1000.46
2022-11-23T08:17:59.075Z,1000.48
2022-11-23T08:18:59.000Z,1000.46
2022-11-23T08:19:58.952Z,1000.49
2022-11-23T08:20:58.875Z,1000.47
2022-11-23T08:21:58.811Z,1000.51
2022-11-23T08:22:58.771Z,1000.50
2022-11-23T08:23:58.666Z,1000.50
2022-11-23T08:24:58.611Z,1000.47
2022-11-23T08:25:58.558Z,1000.49
2022-11-23T08:26:58.492Z,1000.50
2022-11-23T08:27:58.409Z,1000.50
2022-11-23T08:28:58.417Z,1000.47
2022-11-23T08:29:58.317Z,1000.50
2022-11-23T08:30:58.249Z,1000.50
2022-11-23T08:31:58.129Z,1000.49
2022-11-23T08:32:58.074Z,1000.51
2022-11-23T08:34:03.091Z,1000.54
2022-11-23T08:34:57.940Z,1000.50
2022-11-23T08:35:57.999Z,1000.53
2022-11-23T08:36:57.908Z,1000.60
2022-11-23T08:37:57.745Z,1000.56
2022-11-23T08:38:57.709Z,1000.55
2022-11-23T08:39:57.612Z,1000.54
2022-11-23T08:40:57.529Z,1000.53
2022-11-23T08:41:57.458Z,1000.56
2022-11-23T08:42:57.482Z,1000.54
2022-11-23T08:43:57.356Z,1000.56
2022-11-23T08:44:57.240Z,1000.59
2022-11-23T08:46:03.262Z,1000.59
2022-11-23T08:46:57.226Z,1000.61
2022-11-23T08:47:57.050Z,1000.55
2022-11-23T08:48:56.973Z,1000.55
2022-11-23T08:49:56.962Z,1000.57
2022-11-23T08:50:56.847Z,1000.57
2022-11-23T08:51:56.803Z,1000.56
2022-11-23T08:52:56.694Z,1000.56
2022-11-23T08:53:56.618Z,1000.60
2022-11-23T08:54:56.601Z,1000.62
2022-11-23T08:55:56.483Z,1000.64
2022-11-23T08:56:56.471Z,1000.63
2022-11-23T08:57:56.374Z,1000.67
2022-11-23T08:58:56.300Z,1000.68
2022-11-23T08:59:56.209Z,1000.69
2022-11-23T09:00:56.165Z,1000.64
2022-11-23T09:01:56.105Z,1000.62
2022-11-23T09:02:56.019Z,1000.57
2022-11-23T09:03:55.933Z,1000.58
2022-11-23T09:04:55.869Z,1000.59
2022-11-23T09:05:55.801Z,1000.58
2022-11-23T09:06:55.746Z,1000.60
2022-11-23T09:07:55.662Z,1000.60
2022-11-23T09:08:55.595Z,1000.61
2022-11-23T09:09:55.538Z,1000.59
2022-11-23T09:10:55.505Z,1000.59
2022-11-23T09:11:55.389Z,1000.59
2022-11-23T09:12:55.364Z,1000.58
2022-11-23T09:13:55.254Z,1000.59
2022-11-23T09:14:55.177Z,1000.65
2022-11-23T09:15:55.115Z,1000.67
2022-11-23T09:16:55.040Z,1000.73
2022-11-23T09:17:55.005Z,1000.69
2022-11-23T09:18:54.935Z,1000.66
2022-11-23T09:19:54.837Z,1000.67
2022-11-23T09:20:54.783Z,1000.72
2022-11-23T09:21:54.714Z,1000.69
2022-11-23T09:22:54.641Z,1000.72
2022-11-23T09:23:54.584Z,1000.72
2022-11-23T09:24:54.544Z,1000.76
2022-11-23T09:25:54.448Z,1000.76
2022-11-23T09:26:54.466Z,1000.71
2022-11-23T09:27:54.327Z,1000.72
2022-11-23T09:28:54.268Z,1000.70
2022-11-23T09:29:54.186Z,1000.69
2022-11-23T09:30:54.154Z,1000.68
2022-11-23T09:31:54.047Z,1000.69
2022-11-23T09:32:54.257Z,1000.64
2022-11-23T09:33:53.921Z,1000.61
2022-11-23T09:34:53.860Z,1000.64
2022-11-23T09:35:53.792Z,1000.68
2022-11-23T09:36:53.720Z,1000.66
2022-11-23T09:37:53.686Z,1000.67
2022-11-23T09:38:57.612Z,1000.66
2022-11-23T09:39:53.524Z,1000.63
2022-11-23T09:40:57.604Z,1000.58
2022-11-23T09:41:53.411Z,1000.54
2022-11-23T09:42:53.372Z,1000.52
2022-11-23T09:43:53.292Z,1000.53
2022-11-23T09:44:53.203Z,1000.56
2022-11-23T09:45:53.224Z,1000.53
2022-11-23T09:46:53.278Z,1000.55
2022-11-23T09:47:53.039Z,1000.62
2022-11-23T09:48:52.957Z,1000.53
2022-11-23T09:49:52.993Z,1000.51
2022-11-23T09:50:52.820Z,1000.62
2022-11-23T09:51:52.779Z,1000.54
2022-11-23T09:52:52.693Z,1000.60
2022-11-23T09:53:52.628Z,1000.51
2022-11-23T09:54:52.568Z,1000.57
2022-11-23T09:55:52.519Z,1000.53
2022-11-23T09:56:55.884Z,1000.55
2022-11-23T09:57:52.378Z,1000.52
2022-11-23T09:58:52.314Z,1000.58
2022-11-23T09:59:52.257Z,1000.55
2022-11-23T10:00:52.207Z,1000.53
2022-11-23T10:01:52.213Z,1000.50
2022-11-23T10:02:52.064Z,1000.54
2022-11-23T10:03:52.008Z,1000.58
2022-11-23T10:04:51.938Z,1000.60
2022-11-23T10:05:51.901Z,1000.65
2022-11-23T10:06:51.821Z,1000.59
2022-11-23T10:07:51.759Z,1000.57
2022-11-23T10:08:51.709Z,1000.56
2022-11-23T10:09:51.624Z,1000.55
2022-11-23T10:10:51.575Z,1000.55
2022-11-23T10:11:51.503Z,1000.58
2022-11-23T10:12:51.453Z,1000.56
2022-11-23T10:13:51.391Z,1000.58
2022-11-23T10:14:51.326Z,1000.57
2022-11-23T10:15:51.311Z,1000.55
2022-11-23T10:16:51.216Z,1000.55
2022-11-23T10:17:51.139Z,1000.48
2022-11-23T10:18:51.114Z,1000.59
2022-11-23T10:19:51.007Z,1000.52
2022-11-23T10:20:50.949Z,1000.59
2022-11-23T10:21:50.872Z,1000.53
2022-11-23T10:22:50.825Z,1000.50
2022-11-23T10:23:50.763Z,1000.57
2022-11-23T10:24:50.766Z,1000.55
2022-11-23T10:25:50.659Z,1000.54
2022-11-23T10:26:50.583Z,1000.53
2022-11-23T10:27:50.521Z,1000.58
2022-11-23T10:28:50.525Z,1000.56
2022-11-23T10:29:50.419Z,1000.57
2022-11-23T10:30:50.316Z,1000.58
2022-11-23T10:31:55.484Z,1000.57
2022-11-23T10:32:50.230Z,1000.53
2022-11-23T10:33:50.201Z,1000.56
2022-11-23T10:34:50.117Z,1000.59
2022-11-23T10:35:50.021Z,1000.61
2022-11-23T10:36:49.970Z,1000.62
2022-11-23T10:37:53.472Z,1000.55
2022-11-23T10:38:49.928Z,1000.59
2022-11-23T10:39:50.042Z,1000.56
2022-11-23T10:40:49.824Z,1000.54
2022-11-23T10:41:49.656Z,1000.50
2022-11-23T10:42:49.577Z,1000.57
2022-11-23T10:43:49.536Z,1000.50
2022-11-23T10:44:49.456Z,1000.50
2022-11-23T10:45:49.406Z,1000.54
2022-11-23T10:46:49.336Z,1000.60
2022-11-23T10:47:49.287Z,1000.43
2022-11-23T10:48:49.223Z,1000.53
2022-11-23T10:49:49.170Z,1000.55
2022-11-23T10:50:49.103Z,1000.45
2022-11-23T10:51:49.028Z,1000.43
2022-11-23T10:52:48.999Z,1000.45
2022-11-23T10:53:48.913Z,1000.38
2022-11-23T10:54:48.955Z,1000.36
2022-11-23T10:55:48.763Z,1000.35
2022-11-23T10:56:48.706Z,1000.37
2022-11-23T10:57:48.662Z,1000.37
2022-11-23T10:58:48.577Z,1000.35
2022-11-23T10:59:48.512Z,1000.36
2022-11-23T11:00:48.567Z,1000.36
2022-11-23T11:01:48.484Z,1000.33
2022-11-23T11:02:48.415Z,1000.35
2022-11-23T11:03:48.259Z,1000.36
2022-11-23T11:04:48.209Z,1000.35
2022-11-23T11:06:08.255Z,1000.43
2022-11-23T11:06:48.077Z,1000.39
2022-11-23T11:07:48.097Z,1000.34
2022-11-23T11:08:47.941Z,1000.38
2022-11-23T11:09:47.871Z,1000.30
2022-11-23T11:10:47.814Z,1000.31
2022-11-23T11:11:47.786Z,1000.29
2022-11-23T11:12:47.669Z,1000.30
2022-11-23T11:13:47.614Z,1000.26
2022-11-23T11:14:48.031Z,1000.26
2022-11-23T11:15:47.939Z,1000.24
2022-11-23T11:16:47.798Z,1000.25
2022-11-23T11:17:47.368Z,1000.21
2022-11-23T11:18:47.282Z,1000.25
2022-11-23T11:19:47.222Z,1000.20
2022-11-23T11:20:47.160Z,1000.23
2022-11-23T11:21:47.149Z,1000.20
2022-11-23T11:22:48.013Z,1000.18
2022-11-23T11:23:47.026Z,1000.19
2022-11-23T11:24:46.898Z,1000.21
2022-11-23T11:25:46.861Z,1000.17
2022-11-23T11:26:46.789Z,1000.15
2022-11-23T11:27:46.694Z,1000.16
2022-11-23T11:28:46.645Z,1000.12
2022-11-23T11:29:46.575Z,1000.14
2022-11-23T11:30:46.517Z,1000.18
2022-11-23T11:31:46.438Z,1000.16
2022-11-23T11:32:46.368Z,1000.19
2022-11-23T11:33:46.320Z,1000.17
2022-11-23T11:34:46.234Z,1000.14
2022-11-23T11:35:46.196Z,1000.17
2022-11-23T11:36:46.148Z,1000.22
2022-11-23T11:37:46.040Z,1000.19
2022-11-23T11:38:56.300Z,1000.19
2022-11-23T11:39:45.909Z,1000.15
2022-11-23T11:40:45.854Z,1000.15
2022-11-23T11:41:45.773Z,1000.16
2022-11-23T11:42:45.718Z,1000.10
2022-11-23T11:43:45.655Z,1000.20
2022-11-23T11:44:45.587Z,1000.16
2022-11-23T11:46:13.133Z,1000.20
2022-11-23T11:46:45.446Z,1000.23
2022-11-23T11:47:45.388Z,1000.23
2022-11-23T11:48:45.385Z,1000.15
2022-11-23T11:49:45.251Z,1000.15
2022-11-23T11:50:45.184Z,1000.20
2022-11-23T11:51:45.136Z,1000.16
2022-11-23T11:52:45.069Z,1000.24
2022-11-23T11:53:45.068Z,1000.23
2022-11-23T11:54:44.919Z,1000.24
2022-11-23T11:55:44.870Z,1000.28
2022-11-23T11:56:44.795Z,1000.24
2022-11-23T11:57:44.897Z,1000.31
2022-11-23T11:58:44.779Z,1000.28
2022-11-23T11:59:44.630Z,1000.26
2022-11-23T12:00:45.352Z,1000.25
2022-11-23T12:01:44.486Z,1000.27
2022-11-23T12:02:44.536Z,1000.29
2022-11-23T12:03:44.333Z,1000.25
2022-11-23T12:04:44.342Z,1000.26
2022-11-23T12:05:44.194Z,1000.22
2022-11-23T12:06:44.135Z,1000.26
2022-11-23T12:07:44.112Z,1000.24
2022-11-23T12:08:44.018Z,1000.21
2022-11-23T12:09:43.963Z,1000.17
2022-11-23T12:10:43.943Z,1000.23
2022-11-23T12:11:43.809Z,1000.24
2022-11-23T12:12:43.738Z,1000.22
2022-11-23T12:13:43.709Z,1000.26
2022-11-23T12:14:43.649Z,1000.20
2022-11-23T12:15:50.975Z,1000.22
2022-11-23T12:16:43.465Z,1000.21
2022-11-23T12:17:43.409Z,1000.19
2022-11-23T12:18:43.365Z,1000.18
2022-11-23T12:19:43.303Z,1000.19
2022-11-23T12:20:43.225Z,1000.19